Time;durP1;ratioP1;P1;durP2;ratioP2;P2;SDS_P1;SDS_P2;PMS_P1;PMS_P2;Temp;Humidity;BMP_temperature;BMP_pressure;BME280_temperature;BME280_humidity;BME280_pressure;Samples;Min_cycle;Max_cycle;Signal;HPM_P1;HPM_P2
2019/09/18 00:02:54;;;;;;;2.22;1.75;;;;;;;21.27;54.05;101274.61;;;;-46
2019/09/18 00:05:54;;;;;;;1.88;1.68;;;;;;;21.27;54.03;101277.53;;;;-46
2019/09/18 00:08:54;;;;;;;2.23;2.03;;;;;;;21.26;54.09;101280.38;;;;-46
2019/09/18 00:11:54;;;;;;;1.75;1.62;;;;;;;21.27;54.07;101288.22;;;;-46
2019/09/18 00:14:54;;;;;;;2.11;1.75;;;;;;;21.27;54.06;101284.42;;;;-46
2019/09/18 00:17:54;;;;;;;2.83;1.78;;;;;;;21.26;54.04;101282.97;;;;-46
2019/09/18 00:20:54;;;;;;;2.04;1.61;;;;;;;21.25;54.09;101285.03;;;;-46
2019/09/18 00:23:54;;;;;;;2.07;1.71;;;;;;;21.24;54.07;101288.17;;;;-46
2019/09/18 00:26:54;;;;;;;2.35;1.84;;;;;;;21.25;54.06;101290.58;;;;-46
2019/09/18 00:29:54;;;;;;;2.48;1.68;;;;;;;21.24;54.09;101287.84;;;;-46
2019/09/18 00:32:54;;;;;;;1.75;1.63;;;;;;;21.24;54.03;101286.56;;;;-46
2019/09/18 00:35:54;;;;;;;1.97;1.70;;;;;;;21.24;54.09;101288.91;;;;-47
2019/09/18 00:38:54;;;;;;;1.93;1.70;;;;;;;21.23;54.06;101288.53;;;;-46
2019/09/18 00:41:54;;;;;;;1.92;1.70;;;;;;;21.23;54.03;101288.13;;;;-45
2019/09/18 00:44:54;;;;;;;1.93;1.75;;;;;;;21.23;54.08;101287.34;;;;-46
2019/09/18 00:47:54;;;;;;;1.93;1.69;;;;;;;21.23;54.03;101291.14;;;;-46
2019/09/18 00:50:54;;;;;;;1.79;1.65;;;;;;;21.22;54.05;101290.77;;;;-46
2019/09/18 00:53:54;;;;;;;1.83;1.70;;;;;;;21.22;54.05;101292.84;;;;-46
2019/09/18 00:56:54;;;;;;;1.91;1.71;;;;;;;21.21;54.07;101293.97;;;;-44
2019/09/18 00:59:54;;;;;;;1.81;1.63;;;;;;;21.21;54.10;101297.83;;;;-44
2019/09/18 01:02:54;;;;;;;2.13;1.80;;;;;;;21.20;54.09;101299.73;;;;-44
2019/09/18 01:05:54;;;;;;;2.00;1.80;;;;;;;21.20;54.06;101302.82;;;;-44
2019/09/18 01:08:54;;;;;;;1.89;1.73;;;;;;;21.21;54.06;101309.42;;;;-44
2019/09/18 01:11:54;;;;;;;1.84;1.72;;;;;;;21.20;54.05;101308.63;;;;-44
2019/09/18 01:14:54;;;;;;;1.95;1.79;;;;;;;21.20;54.07;101308.80;;;;-44
2019/09/18 01:17:54;;;;;;;2.22;1.71;;;;;;;21.20;54.10;101308.13;;;;-45
2019/09/18 01:20:54;;;;;;;1.76;1.66;;;;;;;21.19;54.06;101308.24;;;;-46
2019/09/18 01:23:54;;;;;;;2.53;1.71;;;;;;;21.19;54.09;101313.69;;;;-46
2019/09/18 01:26:54;;;;;;;1.71;1.61;;;;;;;21.18;54.08;101313.58;;;;-46
2019/09/18 01:29:54;;;;;;;1.97;1.70;;;;;;;21.19;54.07;101314.02;;;;-46
2019/09/18 01:32:54;;;;;;;2.29;1.70;;;;;;;21.19;54.06;101320.73;;;;-46
2019/09/18 01:35:54;;;;;;;1.88;1.67;;;;;;;21.18;54.07;101318.55;;;;-46
2019/09/18 01:38:54;;;;;;;2.01;1.76;;;;;;;21.18;54.05;101317.37;;;;-46
2019/09/18 01:41:54;;;;;;;1.76;1.65;;;;;;;21.18;54.05;101320.12;;;;-46
2019/09/18 01:44:54;;;;;;;1.82;1.67;;;;;;;21.17;54.02;101323.59;;;;-45
2019/09/18 01:47:54;;;;;;;2.07;1.73;;;;;;;21.17;54.04;101324.10;;;;-46
2019/09/18 01:50:54;;;;;;;2.19;1.80;;;;;;;21.17;54.03;101327.52;;;;-46
2019/09/18 01:53:54;;;;;;;2.21;1.81;;;;;;;21.17;54.04;101337.48;;;;-45
2019/09/18 01:56:54;;;;;;;1.83;1.62;;;;;;;21.16;54.06;101337.59;;;;-46
2019/09/18 01:59:54;;;;;;;2.90;1.78;;;;;;;21.16;54.05;101334.23;;;;-46
2019/09/18 02:02:54;;;;;;;1.75;1.65;;;;;;;21.16;54.03;101338.84;;;;-46
2019/09/18 02:05:54;;;;;;;1.86;1.71;;;;;;;21.15;54.04;101337.45;;;;-46
2019/09/18 02:08:54;;;;;;;3.03;1.82;;;;;;;21.15;54.02;101338.28;;;;-46
2019/09/18 02:11:54;;;;;;;1.87;1.77;;;;;;;21.14;54.02;101342.42;;;;-46
2019/09/18 02:14:54;;;;;;;2.64;1.71;;;;;;;21.15;54.04;101345.27;;;;-46
2019/09/18 02:17:54;;;;;;;1.87;1.69;;;;;;;21.15;54.04;101345.90;;;;-46
2019/09/18 02:20:54;;;;;;;1.93;1.69;;;;;;;21.14;54.04;101341.81;;;;-46
2019/09/18 02:23:54;;;;;;;1.99;1.77;;;;;;;21.13;54.00;101339.63;;;;-46
2019/09/18 02:26:54;;;;;;;2.01;1.73;;;;;;;21.13;54.06;101345.00;;;;-46
2019/09/18 02:29:54;;;;;;;1.69;1.59;;;;;;;21.13;54.03;101346.17;;;;-46
2019/09/18 02:32:54;;;;;;;2.41;1.84;;;;;;;21.13;54.02;101354.41;;;;-46
2019/09/18 02:35:54;;;;;;;1.82;1.66;;;;;;;21.12;54.03;101355.77;;;;-46
2019/09/18 02:38:54;;;;;;;1.76;1.66;;;;;;;21.12;54.03;101356.94;;;;-46
2019/09/18 02:41:54;;;;;;;1.70;1.60;;;;;;;21.12;54.06;101364.05;;;;-46
2019/09/18 02:44:54;;;;;;;1.97;1.73;;;;;;;21.12;53.99;101360.06;;;;-47
2019/09/18 02:47:54;;;;;;;2.33;1.70;;;;;;;21.11;54.00;101360.24;;;;-46
2019/09/18 02:50:54;;;;;;;1.67;1.57;;;;;;;21.11;54.02;101360.18;;;;-44
2019/09/18 02:53:54;;;;;;;1.81;1.62;;;;;;;21.11;54.01;101360.25;;;;-44
2019/09/18 02:56:54;;;;;;;2.07;1.69;;;;;;;21.12;54.01;101358.45;;;;-44
2019/09/18 02:59:54;;;;;;;2.09;1.72;;;;;;;21.11;54.00;101362.09;;;;-44
2019/09/18 03:02:54;;;;;;;1.85;1.65;;;;;;;21.10;53.99;101361.42;;;;-45
2019/09/18 03:05:54;;;;;;;1.97;1.70;;;;;;;21.11;54.02;101365.17;;;;-44
2019/09/18 03:08:54;;;;;;;1.65;1.55;;;;;;;21.11;53.97;101364.50;;;;-44
2019/09/18 03:11:54;;;;;;;1.97;1.77;;;;;;;21.10;53.99;101369.36;;;;-44
2019/09/18 03:14:54;;;;;;;1.89;1.77;;;;;;;21.10;54.00;101369.13;;;;-44
2019/09/18 03:17:54;;;;;;;2.53;1.77;;;;;;;21.09;53.93;101370.59;;;;-44
2019/09/18 03:20:54;;;;;;;1.83;1.69;;;;;;;21.09;53.96;101365.52;;;;-44
2019/09/18 03:23:53;;;;;;;1.80;1.70;;;;;;;21.09;53.94;101366.23;;;;-44
2019/09/18 03:26:54;;;;;;;1.81;1.70;;;;;;;21.09;53.96;101367.86;;;;-44
2019/09/18 03:29:54;;;;;;;2.11;1.79;;;;;;;21.08;53.96;101369.83;;;;-46
2019/09/18 03:32:54;;;;;;;2.40;1.71;;;;;;;21.08;53.99;101372.12;;;;-46
2019/09/18 03:35:53;;;;;;;1.91;1.72;;;;;;;21.08;53.95;101369.99;;;;-46
2019/09/18 03:38:54;;;;;;;1.85;1.69;;;;;;;21.07;53.96;101378.17;;;;-46
2019/09/18 03:41:54;;;;;;;2.01;1.77;;;;;;;21.06;53.96;101373.25;;;;-48
2019/09/18 03:44:53;;;;;;;1.83;1.61;;;;;;;21.06;53.95;101374.30;;;;-48
2019/09/18 03:47:53;;;;;;;2.03;1.77;;;;;;;21.07;53.95;101383.31;;;;-47
2019/09/18 03:50:54;;;;;;;1.73;1.60;;;;;;;21.07;53.93;101386.13;;;;-48
2019/09/18 03:53:54;;;;;;;1.65;1.55;;;;;;;21.06;53.93;101376.27;;;;-48
2019/09/18 03:56:53;;;;;;;1.85;1.60;;;;;;;21.06;53.97;101381.48;;;;-48
2019/09/18 03:59:54;;;;;;;2.14;1.83;;;;;;;21.05;53.94;101375.09;;;;-48
2019/09/18 04:02:53;;;;;;;1.74;1.63;;;;;;;21.05;53.91;101374.20;;;;-48
2019/09/18 04:05:53;;;;;;;1.97;1.66;;;;;;;21.05;53.92;101375.98;;;;-48
2019/09/18 04:08:54;;;;;;;1.79;1.56;;;;;;;21.04;53.90;101377.89;;;;-47
2019/09/18 04:11:53;;;;;;;2.38;1.73;;;;;;;21.04;53.93;101383.83;;;;-48
2019/09/18 04:14:54;;;;;;;1.75;1.65;;;;;;;21.05;53.93;101383.11;;;;-48
2019/09/18 04:17:54;;;;;;;1.98;1.78;;;;;;;21.04;53.94;101386.12;;;;-47
2019/09/18 04:20:53;;;;;;;2.03;1.65;;;;;;;21.04;53.98;101388.20;;;;-48
2019/09/18 04:23:54;;;;;;;1.66;1.56;;;;;;;21.03;53.96;101393.45;;;;-48
2019/09/18 04:26:54;;;;;;;1.89;1.60;;;;;;;21.04;53.94;101403.48;;;;-48
2019/09/18 04:29:53;;;;;;;9.48;2.09;;;;;;;21.09;54.15;101406.33;;;;-49
2019/09/18 04:32:53;;;;;;;4.73;1.70;;;;;;;21.07;53.92;101401.75;;;;-49
2019/09/18 04:35:53;;;;;;;2.51;1.70;;;;;;;21.07;53.83;101403.88;;;;-54
2019/09/18 04:38:54;;;;;;;3.80;1.87;;;;;;;21.06;54.04;101406.45;;;;-54
2019/09/18 04:41:53;;;;;;;3.37;1.75;;;;;;;21.06;53.91;101396.16;;;;-48
2019/09/18 04:44:53;;;;;;;3.37;1.90;;;;;;;21.05;53.91;101399.00;;;;-48
2019/09/18 04:47:53;;;;;;;5.14;1.69;;;;;;;21.04;53.90;101408.96;;;;-48
2019/09/18 04:50:53;;;;;;;3.95;1.93;;;;;;;21.05;53.91;101414.17;;;;-48
2019/09/18 04:53:53;;;;;;;1.91;1.61;;;;;;;21.04;53.87;101414.52;;;;-57
2019/09/18 04:56:54;;;;;;;3.88;1.80;;;;;;;21.03;53.92;101419.83;;;;-59
2019/09/18 04:59:54;;;;;;;3.49;1.89;;;;;;;21.04;53.93;101428.91;;;;-58
2019/09/18 05:02:53;;;;;;;3.02;1.73;;;;;;;21.03;53.95;101422.64;;;;-58
2019/09/18 05:05:54;;;;;;;3.32;1.85;;;;;;;21.03;53.95;101423.92;;;;-58
2019/09/18 05:08:54;;;;;;;2.59;1.78;;;;;;;21.03;53.97;101421.05;;;;-54
2019/09/18 05:11:53;;;;;;;4.25;2.33;;;;;;;20.87;49.34;101423.39;;;;-45
2019/09/18 05:14:53;;;;;;;6.67;2.46;;;;;;;20.54;47.20;101429.13;;;;-46
2019/09/18 05:17:54;;;;;;;5.68;2.99;;;;;;;20.35;47.08;101430.63;;;;-49
2019/09/18 05:20:53;;;;;;;6.36;2.81;;;;;;;20.51;48.02;101438.73;;;;-49
2019/09/18 05:23:54;;;;;;;5.13;2.57;;;;;;;20.60;48.81;101440.37;;;;-49
2019/09/18 05:26:53;;;;;;;4.97;2.58;;;;;;;20.67;49.33;101444.28;;;;-48
2019/09/18 05:29:54;;;;;;;5.79;2.45;;;;;;;20.71;49.76;101445.75;;;;-49
2019/09/18 05:32:54;;;;;;;4.23;2.39;;;;;;;20.74;50.22;101448.09;;;;-55
2019/09/18 05:35:54;;;;;;;4.61;2.38;;;;;;;20.77;50.25;101451.27;;;;-56
2019/09/18 05:38:53;;;;;;;4.21;2.31;;;;;;;20.78;50.55;101456.04;;;;-56
2019/09/18 05:41:53;;;;;;;3.28;2.25;;;;;;;20.79;51.01;101454.58;;;;-56
2019/09/18 05:44:53;;;;;;;3.70;2.35;;;;;;;20.80;51.13;101451.72;;;;-57
2019/09/18 05:47:54;;;;;;;3.29;2.20;;;;;;;20.80;51.30;101448.05;;;;-56
2019/09/18 05:50:53;;;;;;;4.03;2.42;;;;;;;20.81;51.35;101447.91;;;;-56
2019/09/18 05:53:53;;;;;;;3.51;2.31;;;;;;;20.81;51.44;101453.95;;;;-56
2019/09/18 05:56:53;;;;;;;3.55;2.19;;;;;;;20.81;51.57;101453.84;;;;-57
2019/09/18 05:59:54;;;;;;;3.29;2.35;;;;;;;20.81;51.68;101449.69;;;;-56
2019/09/18 06:02:54;;;;;;;3.72;2.25;;;;;;;20.81;51.75;101457.08;;;;-55
2019/09/18 06:05:53;;;;;;;3.99;2.40;;;;;;;20.82;51.81;101456.08;;;;-56
2019/09/18 06:08:53;;;;;;;3.33;2.19;;;;;;;20.82;51.91;101464.14;;;;-56
2019/09/18 06:11:53;;;;;;;3.63;2.31;;;;;;;20.81;51.94;101465.24;;;;-56
2019/09/18 06:14:54;;;;;;;4.13;2.34;;;;;;;20.82;51.98;101471.07;;;;-56
2019/09/18 06:17:53;;;;;;;3.13;2.20;;;;;;;20.82;52.07;101469.89;;;;-56
2019/09/18 06:20:54;;;;;;;4.99;2.45;;;;;;;20.85;52.07;101470.35;;;;-50
2019/09/18 06:23:53;;;;;;;4.12;2.38;;;;;;;20.85;52.25;101474.93;;;;-50
2019/09/18 06:26:54;;;;;;;3.67;2.25;;;;;;;20.87;52.20;101477.13;;;;-58
2019/09/18 06:29:53;;;;;;;4.94;2.36;;;;;;;20.89;52.19;101474.81;;;;-58
2019/09/18 06:32:53;;;;;;;4.97;2.09;;;;;;;20.89;52.18;101475.44;;;;-58
2019/09/18 06:35:53;;;;;;;4.56;2.24;;;;;;;20.91;52.21;101475.16;;;;-57
2019/09/18 06:38:54;;;;;;;4.93;2.13;;;;;;;20.93;52.18;101484.33;;;;-58
2019/09/18 06:41:53;;;;;;;2.87;2.12;;;;;;;20.94;52.22;101478.28;;;;-58
2019/09/18 06:44:53;;;;;;;3.84;1.95;;;;;;;20.94;52.22;101478.29;;;;-58
2019/09/18 06:47:53;;;;;;;3.67;2.12;;;;;;;20.96;52.21;101476.95;;;;-58
2019/09/18 06:50:53;;;;;;;2.92;2.01;;;;;;;20.96;52.21;101476.22;;;;-58
2019/09/18 06:53:54;;;;;;;4.97;1.99;;;;;;;20.96;52.19;101477.69;;;;-58
2019/09/18 06:56:54;;;;;;;2.31;1.85;;;;;;;20.95;52.24;101482.55;;;;-57
2019/09/18 06:59:53;;;;;;;3.74;2.01;;;;;;;20.95;52.31;101485.62;;;;-59
2019/09/18 07:02:54;;;;;;;3.23;1.95;;;;;;;20.95;52.27;101485.62;;;;-59
2019/09/18 07:05:53;;;;;;;3.89;2.03;;;;;;;20.96;52.36;101492.80;;;;-59
2019/09/18 07:08:53;;;;;;;3.85;2.12;;;;;;;20.96;52.30;101491.28;;;;-59
2019/09/18 07:11:54;;;;;;;3.27;1.88;;;;;;;20.96;52.29;101494.52;;;;-59
2019/09/18 07:14:54;;;;;;;2.65;2.00;;;;;;;20.97;52.35;101499.00;;;;-59
2019/09/18 07:17:54;;;;;;;4.21;2.19;;;;;;;20.96;52.31;101502.64;;;;-59
2019/09/18 07:20:53;;;;;;;2.93;2.01;;;;;;;20.97;52.33;101503.31;;;;-59
2019/09/18 07:23:53;;;;;;;2.51;1.89;;;;;;;20.98;52.35;101497.70;;;;-59
2019/09/18 07:26:53;;;;;;;2.49;1.93;;;;;;;20.98;52.38;101497.44;;;;-52
2019/09/18 07:29:54;;;;;;;2.87;1.91;;;;;;;20.98;52.38;101499.05;;;;-59
2019/09/18 07:32:53;;;;;;;2.46;1.90;;;;;;;20.98;52.37;101504.66;;;;-59
2019/09/18 07:35:54;;;;;;;2.97;1.91;;;;;;;20.99;52.36;101507.45;;;;-59
2019/09/18 07:38:54;;;;;;;3.72;2.10;;;;;;;20.99;52.40;101502.62;;;;-59
2019/09/18 07:41:53;;;;;;;3.19;2.00;;;;;;;20.98;52.37;101505.61;;;;-59
2019/09/18 07:44:53;;;;;;;3.33;1.95;;;;;;;20.98;52.42;101507.45;;;;-59
2019/09/18 07:47:53;;;;;;;2.51;1.83;;;;;;;20.99;52.44;101511.87;;;;-59
2019/09/18 07:50:53;;;;;;;2.61;1.78;;;;;;;20.99;52.49;101509.09;;;;-59
2019/09/18 07:53:54;;;;;;;2.37;1.89;;;;;;;20.99;52.43;101510.19;;;;-59
2019/09/18 07:56:54;;;;;;;3.09;2.00;;;;;;;20.99;52.39;101510.81;;;;-59
2019/09/18 07:59:53;;;;;;;2.13;1.70;;;;;;;20.99;52.41;101507.95;;;;-59
2019/09/18 08:02:54;;;;;;;3.58;1.92;;;;;;;21.01;52.45;101511.14;;;;-59
2019/09/18 08:05:53;;;;;;;1.89;1.71;;;;;;;20.99;52.40;101504.64;;;;-59
2019/09/18 08:08:54;;;;;;;2.25;1.83;;;;;;;21.00;52.45;101509.57;;;;-59
2019/09/18 08:11:54;;;;;;;2.51;1.90;;;;;;;21.01;52.45;101506.77;;;;-56
2019/09/18 08:14:53;;;;;;;2.59;1.84;;;;;;;21.00;52.36;101511.66;;;;-58
2019/09/18 08:18:01;;;;;;;3.01;1.71;;;;;;;21.00;52.40;101509.64;;;;-58
2019/09/18 08:20:58;;;;;;;2.68;1.83;;;;;;;21.01;52.39;101507.85;;;;-56
2019/09/18 08:23:58;;;;;;;2.47;1.70;;;;;;;21.01;52.47;101508.95;;;;-56
2019/09/18 08:26:54;;;;;;;2.74;1.81;;;;;;;21.01;52.47;101507.17;;;;-58
2019/09/18 08:29:54;;;;;;;2.83;1.70;;;;;;;21.00;52.42;101504.31;;;;-58
2019/09/18 08:32:54;;;;;;;2.57;1.91;;;;;;;21.01;52.39;101505.94;;;;-58
2019/09/18 08:35:53;;;;;;;2.98;1.90;;;;;;;21.02;52.50;101503.75;;;;-54
2019/09/18 08:38:53;;;;;;;5.30;2.16;;;;;;;21.04;52.66;101504.77;;;;-50
2019/09/18 08:41:54;;;;;;;5.11;1.95;;;;;;;21.07;52.42;101501.36;;;;-53
2019/09/18 08:44:53;;;;;;;3.99;2.02;;;;;;;21.09;52.68;101499.72;;;;-57
2019/09/18 08:47:54;;;;;;;3.77;1.81;;;;;;;21.09;52.56;101497.08;;;;-54
2019/09/18 08:50:53;;;;;;;5.60;2.04;;;;;;;21.11;52.59;101501.07;;;;-55
2019/09/18 08:53:54;;;;;;;4.21;1.97;;;;;;;21.10;52.67;101500.78;;;;-53
2019/09/18 08:56:53;;;;;;;5.09;1.75;;;;;;;21.11;52.66;101506.56;;;;-53
2019/09/18 08:59:54;;;;;;;4.61;1.85;;;;;;;21.12;52.65;101505.03;;;;-53
2019/09/18 09:02:53;;;;;;;3.47;1.87;;;;;;;21.12;52.66;101511.70;;;;-53
2019/09/18 09:05:53;;;;;;;3.94;1.87;;;;;;;21.12;52.67;101509.80;;;;-53
2019/09/18 09:09:01;;;;;;;6.25;1.89;;;;;;;21.12;52.68;101506.00;;;;-53
2019/09/18 09:11:54;;;;;;;3.89;1.77;;;;;;;21.12;52.62;101511.25;;;;-53
2019/09/18 09:14:53;;;;;;;3.80;1.83;;;;;;;21.12;52.61;101505.16;;;;-50
2019/09/18 09:17:53;;;;;;;3.58;1.82;;;;;;;21.10;52.60;101504.31;;;;-49
2019/09/18 09:20:54;;;;;;;2.63;1.80;;;;;;;21.11;52.61;101505.61;;;;-47
2019/09/18 09:23:53;;;;;;;3.17;1.72;;;;;;;21.11;52.54;101504.81;;;;-47
2019/09/18 09:26:53;;;;;;;3.49;1.74;;;;;;;21.12;52.54;101508.12;;;;-47
2019/09/18 09:29:53;;;;;;;2.79;1.64;;;;;;;21.11;52.54;101498.89;;;;-48
2019/09/18 09:32:54;;;;;;;3.67;1.69;;;;;;;21.11;52.56;101496.81;;;;-48
2019/09/18 09:35:53;;;;;;;3.30;1.81;;;;;;;21.11;52.56;101494.13;;;;-53
2019/09/18 09:38:54;;;;;;;2.67;1.67;;;;;;;21.12;52.64;101488.97;;;;-53
2019/09/18 09:41:53;;;;;;;3.03;1.81;;;;;;;21.12;52.53;101488.73;;;;-53
2019/09/18 09:44:53;;;;;;;3.18;1.70;;;;;;;21.12;52.47;101482.19;;;;-53
2019/09/18 09:47:54;;;;;;;4.17;1.87;;;;;;;21.11;52.49;101482.88;;;;-53
2019/09/18 09:50:53;;;;;;;3.03;1.78;;;;;;;21.11;52.51;101481.20;;;;-53
2019/09/18 09:55:54;;;;;;;2.70;1.69;;;;;;;21.13;52.54;101478.61;;;;-53
2019/09/18 09:58:53;;;;;;;2.57;1.71;;;;;;;21.13;52.45;101479.17;;;;-53
2019/09/18 10:01:53;;;;;;;3.88;1.67;;;;;;;21.12;52.52;101482.08;;;;-53
2019/09/18 10:04:53;;;;;;;2.73;1.74;;;;;;;21.10;52.45;101475.30;;;;-53
2019/09/18 10:07:54;;;;;;;2.81;1.80;;;;;;;21.12;52.48;101478.39;;;;-53
2019/09/18 10:10:53;;;;;;;2.77;1.81;;;;;;;21.12;52.42;101483.03;;;;-52
2019/09/18 10:13:54;;;;;;;2.61;1.72;;;;;;;21.12;52.32;101478.48;;;;-53
2019/09/18 10:16:53;;;;;;;2.55;1.65;;;;;;;21.12;52.43;101474.92;;;;-53
2019/09/18 10:19:53;;;;;;;4.64;1.76;;;;;;;21.12;52.41;101470.77;;;;-53
2019/09/18 10:22:54;;;;;;;2.67;1.87;;;;;;;21.12;52.41;101472.95;;;;-51
2019/09/18 10:25:54;;;;;;;3.43;1.52;;;;;;;21.12;52.36;101468.58;;;;-53
2019/09/18 10:28:53;;;;;;;2.43;1.65;;;;;;;21.12;52.31;101466.80;;;;-53
2019/09/18 10:31:53;;;;;;;3.84;1.90;;;;;;;21.11;52.36;101467.76;;;;-53
2019/09/18 10:34:54;;;;;;;3.61;1.75;;;;;;;21.12;52.31;101466.63;;;;-53
2019/09/18 10:37:54;;;;;;;1.97;1.60;;;;;;;21.12;52.35;101463.11;;;;-53
2019/09/18 10:40:54;;;;;;;2.59;1.62;;;;;;;21.12;52.29;101457.55;;;;-53
2019/09/18 10:43:54;;;;;;;2.92;1.75;;;;;;;21.12;52.34;101451.78;;;;-53
2019/09/18 10:46:53;;;;;;;2.26;1.70;;;;;;;21.12;52.32;101452.69;;;;-53
2019/09/18 10:49:53;;;;;;;2.59;1.68;;;;;;;21.13;52.30;101454.02;;;;-52
2019/09/18 10:52:53;;;;;;;2.07;1.54;;;;;;;21.13;52.36;101452.00;;;;-53
2019/09/18 10:55:53;;;;;;;2.65;1.65;;;;;;;21.14;52.35;101448.82;;;;-53
2019/09/18 10:58:53;;;;;;;2.94;1.67;;;;;;;21.13;52.35;101443.27;;;;-53
2019/09/18 11:01:53;;;;;;;2.18;1.61;;;;;;;21.14;52.37;101442.04;;;;-53
2019/09/18 11:04:53;;;;;;;2.23;1.50;;;;;;;21.13;52.36;101442.16;;;;-51
2019/09/18 11:07:53;;;;;;;2.59;1.51;;;;;;;21.13;52.35;101439.91;;;;-52
2019/09/18 11:10:53;;;;;;;1.93;1.50;;;;;;;21.13;52.39;101433.86;;;;-53
2019/09/18 11:13:54;;;;;;;3.46;1.57;;;;;;;21.15;52.45;101426.91;;;;-53
2019/09/18 11:16:53;;;;;;;1.68;1.40;;;;;;;21.15;52.39;101427.31;;;;-53
2019/09/18 11:19:53;;;;;;;3.89;1.50;;;;;;;21.15;52.36;101425.40;;;;-51
2019/09/18 11:22:53;;;;;;;2.13;1.57;;;;;;;21.15;52.33;101420.92;;;;-49
2019/09/18 11:25:53;;;;;;;1.77;1.47;;;;;;;21.14;52.30;101417.28;;;;-49
2019/09/18 11:28:53;;;;;;;1.80;1.61;;;;;;;21.15;52.31;101418.68;;;;-50
2019/09/18 11:31:54;;;;;;;2.11;1.50;;;;;;;21.15;52.25;101415.16;;;;-50
2019/09/18 11:34:53;;;;;;;2.51;1.71;;;;;;;21.15;52.32;101407.83;;;;-49
2019/09/18 11:37:53;;;;;;;2.25;1.51;;;;;;;21.15;52.35;101404.30;;;;-50
2019/09/18 11:40:53;;;;;;;1.94;1.55;;;;;;;21.15;52.21;101400.70;;;;-49
2019/09/18 11:43:54;;;;;;;2.21;1.61;;;;;;;21.15;52.30;101393.65;;;;-49
2019/09/18 11:46:53;;;;;;;2.03;1.53;;;;;;;21.15;52.28;101398.26;;;;-59
2019/09/18 11:49:53;;;;;;;1.90;1.50;;;;;;;21.14;52.25;101391.58;;;;-59
2019/09/18 11:52:53;;;;;;;1.63;1.41;;;;;;;21.16;52.29;101386.37;;;;-61
2019/09/18 11:55:53;;;;;;;1.96;1.47;;;;;;;21.15;52.28;101384.98;;;;-60
2019/09/18 11:58:54;;;;;;;2.13;1.56;;;;;;;21.16;52.29;101380.22;;;;-61
2019/09/18 12:01:54;;;;;;;7.07;1.60;;;;;;;21.13;50.57;101380.73;;;;-48
2019/09/18 12:04:53;;;;;;;3.71;1.61;;;;;;;21.06;48.44;101376.78;;;;-46
2019/09/18 12:07:53;;;;;;;4.03;1.56;;;;;;;21.01;48.27;101376.27;;;;-47
2019/09/18 12:10:53;;;;;;;3.82;1.72;;;;;;;20.95;47.45;101368.07;;;;-49
2019/09/18 12:14:54;;;;;;;3.63;1.73;;;;;;;20.91;46.37;101369.97;;;;-49
2019/09/18 12:17:53;;;;;;;4.01;1.60;;;;;;;20.91;46.58;101364.43;;;;-50
2019/09/18 12:20:54;;;;;;;4.45;1.91;;;;;;;20.90;46.34;101365.67;;;;-51
2019/09/18 12:23:53;;;;;;;3.97;1.79;;;;;;;20.89;45.40;101364.49;;;;-52
2019/09/18 12:26:53;;;;;;;3.99;1.73;;;;;;;20.89;45.97;101363.71;;;;-48
2019/09/18 12:29:53;;;;;;;5.47;1.74;;;;;;;20.87;45.30;101361.16;;;;-49
2019/09/18 12:32:54;;;;;;;3.13;1.68;;;;;;;20.87;45.68;101359.59;;;;-50
2019/09/18 12:35:53;;;;;;;4.92;2.05;;;;;;;20.87;44.98;101355.78;;;;-52
2019/09/18 12:38:53;;;;;;;4.83;1.56;;;;;;;20.87;43.37;101352.19;;;;-50
2019/09/18 12:41:53;;;;;;;5.20;1.97;;;;;;;20.90;43.42;101355.44;;;;-52
2019/09/18 12:44:53;;;;;;;15.35;2.15;;;;;;;20.91;42.33;101346.42;;;;-47
2019/09/18 12:47:54;;;;;;;7.01;1.95;;;;;;;20.90;42.07;101339.36;;;;-48
2019/09/18 12:50:53;;;;;;;3.58;1.81;;;;;;;20.89;43.02;101339.03;;;;-52
2019/09/18 12:53:54;;;;;;;5.53;2.07;;;;;;;20.84;42.47;101341.22;;;;-51
2019/09/18 12:56:59;;;;;;;7.22;1.97;;;;;;;20.85;41.64;101333.51;;;;-53
2019/09/18 13:00:53;;;;;;;4.10;1.83;;;;;;;20.78;40.61;101332.48;;;;-52
2019/09/18 13:03:53;;;;;;;4.64;1.80;;;;;;;20.76;41.59;101336.73;;;;-51
2019/09/18 13:06:54;;;;;;;4.60;1.99;;;;;;;20.77;41.75;101328.89;;;;-50
2019/09/18 13:09:53;;;;;;;5.79;2.01;;;;;;;20.77;41.91;101318.72;;;;-50
2019/09/18 13:12:54;;;;;;;4.95;2.08;;;;;;;20.83;42.80;101323.88;;;;-48
2019/09/18 13:15:53;;;;;;;7.41;1.94;;;;;;;20.86;43.54;101324.03;;;;-46
2019/09/18 13:18:53;;;;;;;7.15;1.93;;;;;;;20.89;44.23;101324.76;;;;-46
2019/09/18 13:21:53;;;;;;;6.62;1.98;;;;;;;20.89;44.80;101323.52;;;;-47
2019/09/18 13:24:54;;;;;;;5.94;1.71;;;;;;;20.91;44.70;101313.38;;;;-52
2019/09/18 13:27:53;;;;;;;5.29;1.91;;;;;;;20.91;45.21;101317.48;;;;-51
2019/09/18 13:30:53;;;;;;;4.15;1.77;;;;;;;20.91;45.24;101319.84;;;;-52
2019/09/18 13:33:53;;;;;;;5.17;1.86;;;;;;;20.93;45.49;101313.66;;;;-52
2019/09/18 13:36:53;;;;;;;4.51;1.78;;;;;;;20.94;45.95;101314.11;;;;-50
2019/09/18 13:39:54;;;;;;;4.03;1.71;;;;;;;20.95;45.88;101313.89;;;;-52
2019/09/18 13:42:53;;;;;;;3.76;1.70;;;;;;;20.96;45.88;101307.06;;;;-52
2019/09/18 13:45:54;;;;;;;4.67;1.67;;;;;;;20.96;46.39;101299.61;;;;-50
2019/09/18 13:48:53;;;;;;;5.31;1.70;;;;;;;20.98;46.49;101303.64;;;;-52
2019/09/18 13:51:53;;;;;;;3.41;1.73;;;;;;;20.99;46.58;101302.11;;;;-50
2019/09/18 13:54:53;;;;;;;3.69;1.73;;;;;;;20.99;46.75;101297.31;;;;-52
2019/09/18 13:57:54;;;;;;;3.13;1.67;;;;;;;20.99;46.88;101295.23;;;;-52
2019/09/18 14:00:53;;;;;;;3.46;1.70;;;;;;;20.99;46.85;101297.52;;;;-52
2019/09/18 14:03:53;;;;;;;3.80;1.67;;;;;;;21.00;46.88;101295.11;;;;-50
2019/09/18 14:06:53;;;;;;;3.96;1.82;;;;;;;21.00;47.08;101293.20;;;;-52
2019/09/18 14:09:53;;;;;;;3.33;1.53;;;;;;;21.02;47.09;101295.45;;;;-52
2019/09/18 14:12:53;;;;;;;3.70;1.67;;;;;;;21.02;47.23;101293.20;;;;-52
2019/09/18 14:15:53;;;;;;;3.73;1.55;;;;;;;21.02;47.22;101291.80;;;;-52
2019/09/18 14:18:54;;;;;;;3.87;1.71;;;;;;;21.05;47.47;101290.29;;;;-54
2019/09/18 14:21:53;;;;;;;5.22;1.67;;;;;;;21.05;47.55;101288.88;;;;-59
2019/09/18 14:24:54;;;;;;;3.28;1.75;;;;;;;21.07;47.84;101291.23;;;;-57
2019/09/18 14:27:53;;;;;;;7.13;2.16;;;;;;;21.09;48.00;101287.75;;;;-58
2019/09/18 14:30:53;;;;;;;2.82;1.53;;;;;;;21.09;47.95;101287.63;;;;-56
2019/09/18 14:33:53;;;;;;;5.04;1.63;;;;;;;21.12;48.11;101280.11;;;;-52
2019/09/18 14:36:53;;;;;;;4.62;1.61;;;;;;;21.13;48.22;101284.02;;;;-53
2019/09/18 14:39:53;;;;;;;2.96;1.51;;;;;;;21.15;48.25;101286.70;;;;-54
2019/09/18 14:42:53;;;;;;;5.13;1.57;;;;;;;21.15;48.33;101284.36;;;;-55
2019/09/18 14:45:53;;;;;;;3.20;1.55;;;;;;;21.16;48.38;101282.06;;;;-57
2019/09/18 14:48:53;;;;;;;3.71;1.50;;;;;;;21.18;48.47;101286.92;;;;-59
2019/09/18 14:51:53;;;;;;;3.49;1.57;;;;;;;21.19;48.49;101284.39;;;;-57
2019/09/18 14:54:53;;;;;;;4.34;1.53;;;;;;;21.19;48.51;101283.38;;;;-56
2019/09/18 14:57:54;;;;;;;3.35;1.60;;;;;;;21.20;48.63;101280.80;;;;-57
2019/09/18 15:00:53;;;;;;;2.65;1.50;;;;;;;21.20;48.80;101282.33;;;;-57
2019/09/18 15:03:53;;;;;;;2.03;1.55;;;;;;;21.21;48.83;101281.48;;;;-56
2019/09/18 15:06:53;;;;;;;3.53;1.39;;;;;;;21.22;48.76;101277.56;;;;-57
2019/09/18 15:09:53;;;;;;;3.46;1.45;;;;;;;21.23;48.79;101274.91;;;;-59
2019/09/18 15:12:54;;;;;;;2.51;1.44;;;;;;;21.24;48.89;101274.56;;;;-61
2019/09/18 15:15:54;;;;;;;3.23;1.47;;;;;;;21.24;48.95;101274.73;;;;-49
2019/09/18 15:18:53;;;;;;;3.11;1.41;;;;;;;21.26;48.98;101278.77;;;;-47
2019/09/18 15:21:53;;;;;;;2.57;1.40;;;;;;;21.25;49.05;101275.30;;;;-48
2019/09/18 15:24:54;;;;;;;3.11;1.59;;;;;;;21.27;49.25;101275.12;;;;-48
2019/09/18 15:27:53;;;;;;;4.19;1.49;;;;;;;21.28;49.20;101279.20;;;;-48
2019/09/18 15:30:53;;;;;;;6.64;1.62;;;;;;;21.29;49.22;101277.13;;;;-48
2019/09/18 15:33:53;;;;;;;5.17;1.85;;;;;;;21.30;49.19;101274.26;;;;-51
2019/09/18 15:36:54;;;;;;;5.43;1.50;;;;;;;21.31;49.16;101273.47;;;;-48
2019/09/18 15:39:53;;;;;;;6.31;1.76;;;;;;;21.32;49.01;101276.31;;;;-48
2019/09/18 15:42:53;;;;;;;9.36;1.65;;;;;;;21.34;49.23;101281.12;;;;-49
2019/09/18 15:45:54;;;;;;;5.14;1.80;;;;;;;21.34;49.17;101281.96;;;;-49
2019/09/18 15:48:53;;;;;;;9.34;1.84;;;;;;;21.35;49.18;101277.47;;;;-49
2019/09/18 15:51:54;;;;;;;5.11;1.60;;;;;;;21.37;49.24;101284.42;;;;-48
2019/09/18 15:54:53;;;;;;;5.97;1.72;;;;;;;21.36;49.30;101286.59;;;;-51
2019/09/18 15:57:53;;;;;;;5.65;1.51;;;;;;;21.37;49.22;101290.52;;;;-50
2019/09/18 16:00:53;;;;;;;5.02;1.55;;;;;;;21.38;49.26;101287.09;;;;-51
2019/09/18 16:03:53;;;;;;;6.06;1.45;;;;;;;21.37;49.43;101292.42;;;;-51
2019/09/18 16:06:54;;;;;;;5.39;1.66;;;;;;;21.38;49.29;101298.92;;;;-48
2019/09/18 16:09:54;;;;;;;3.71;1.42;;;;;;;21.38;49.36;101300.81;;;;-49
2019/09/18 16:12:54;;;;;;;2.49;1.43;;;;;;;21.38;49.33;101299.64;;;;-47
2019/09/18 16:15:53;;;;;;;4.50;1.52;;;;;;;21.37;49.42;101298.30;;;;-50
2019/09/18 16:18:53;;;;;;;3.17;1.47;;;;;;;21.39;49.48;101300.55;;;;-47
2019/09/18 16:21:53;;;;;;;3.87;1.30;;;;;;;21.38;49.58;101301.98;;;;-49
2019/09/18 16:24:53;;;;;;;3.89;1.59;;;;;;;21.38;49.52;101301.17;;;;-49
2019/09/18 16:27:54;;;;;;;3.71;1.59;;;;;;;21.36;49.48;101304.14;;;;-51
2019/09/18 16:30:53;;;;;;;4.09;1.41;;;;;;;21.36;49.46;101301.51;;;;-48
2019/09/18 16:33:53;;;;;;;4.21;1.48;;;;;;;21.36;49.35;101304.80;;;;-48
2019/09/18 16:36:53;;;;;;;5.27;1.55;;;;;;;21.36;49.40;101300.67;;;;-48
2019/09/18 16:39:54;;;;;;;5.93;1.65;;;;;;;21.34;49.32;101308.52;;;;-47
2019/09/18 16:42:53;;;;;;;4.07;1.49;;;;;;;21.34;49.32;101312.61;;;;-47
2019/09/18 16:45:53;;;;;;;3.07;1.43;;;;;;;21.33;49.30;101314.67;;;;-48
2019/09/18 16:48:54;;;;;;;6.17;1.49;;;;;;;21.34;49.57;101312.20;;;;-50